createdAt,value
2022-10-05T00:00:03.970Z,10.55
2022-10-05T00:01:03.961Z,10.55
2022-10-05T00:02:04.042Z,10.51
2022-10-05T00:03:03.963Z,10.46
2022-10-05T00:04:03.946Z,10.52
2022-10-05T00:05:03.971Z,10.52
2022-10-05T00:06:03.905Z,10.52
2022-10-05T00:07:03.907Z,10.44
2022-10-05T00:08:03.911Z,10.42
2022-10-05T00:09:03.878Z,10.43
2022-10-05T00:10:03.876Z,10.43
2022-10-05T00:11:03.871Z,10.42
2022-10-05T00:12:03.847Z,10.44
2022-10-05T00:13:03.860Z,10.39
2022-10-05T00:14:03.896Z,10.37
2022-10-05T00:15:03.826Z,10.37
2022-10-05T00:16:03.827Z,10.44
2022-10-05T00:17:03.880Z,10.46
2022-10-05T00:18:03.818Z,10.37
2022-10-05T00:19:03.787Z,10.43
2022-10-05T00:20:03.769Z,10.43
2022-10-05T00:21:03.765Z,10.43
2022-10-05T00:22:03.763Z,10.36
2022-10-05T00:23:03.777Z,10.37
2022-10-05T00:24:03.742Z,10.44
2022-10-05T00:25:03.730Z,10.36
2022-10-05T00:26:03.713Z,10.39
2022-10-05T00:27:04.717Z,10.32
2022-10-05T00:28:03.801Z,10.43
2022-10-05T00:29:03.687Z,10.19
2022-10-05T00:30:03.683Z,10.30
2022-10-05T00:31:03.674Z,10.33
2022-10-05T00:32:03.694Z,10.21
2022-10-05T00:33:03.678Z,10.21
2022-10-05T00:34:03.650Z,10.12
2022-10-05T00:35:03.639Z,10.24
2022-10-05T00:36:03.617Z,10.22
2022-10-05T00:37:03.623Z,10.15
2022-10-05T00:38:03.630Z,10.12
2022-10-05T00:39:03.600Z,10.06
2022-10-05T00:40:03.580Z,10.00
2022-10-05T00:41:03.578Z,10.01
2022-10-05T00:42:03.566Z,10.07
2022-10-05T00:43:03.582Z,9.99
2022-10-05T00:44:03.554Z,10.03
2022-10-05T00:45:03.537Z,9.91
2022-10-05T00:46:03.603Z,9.91
2022-10-05T00:47:03.534Z,10.09
2022-10-05T00:48:03.530Z,9.99
2022-10-05T00:49:03.496Z,10.00
2022-10-05T00:50:03.493Z,9.94
2022-10-05T00:51:03.473Z,9.93
2022-10-05T00:52:03.469Z,9.94
2022-10-05T00:53:03.480Z,9.88
2022-10-05T00:54:03.458Z,9.96
2022-10-05T00:55:03.428Z,9.89
2022-10-05T00:56:03.423Z,9.99
2022-10-05T00:57:03.410Z,9.91
2022-10-05T00:58:03.422Z,9.86
2022-10-05T00:59:03.398Z,9.93
2022-10-05T01:00:03.390Z,9.97
2022-10-05T01:01:03.425Z,9.88
2022-10-05T01:02:03.428Z,9.86
2022-10-05T01:03:03.378Z,9.91
2022-10-05T01:04:03.350Z,9.96
2022-10-05T01:05:03.342Z,10.03
2022-10-05T01:06:03.326Z,9.99
2022-10-05T01:07:03.316Z,9.96
2022-10-05T01:08:03.335Z,9.93
2022-10-05T01:09:03.296Z,9.97
2022-10-05T01:10:03.289Z,9.99
2022-10-05T01:11:03.272Z,10.00
2022-10-05T01:12:03.267Z,9.91
2022-10-05T01:13:03.281Z,9.89
2022-10-05T01:14:03.251Z,9.93
2022-10-05T01:15:03.244Z,9.94
2022-10-05T01:16:03.268Z,9.94
2022-10-05T01:17:03.240Z,9.86
2022-10-05T01:18:03.226Z,9.83
2022-10-05T01:19:03.190Z,9.79
2022-10-05T01:20:03.198Z,9.93
2022-10-05T01:21:03.190Z,9.96
2022-10-05T01:22:03.177Z,9.94
2022-10-05T01:23:03.165Z,9.88
2022-10-05T01:24:03.157Z,9.89
2022-10-05T01:25:03.149Z,9.85
2022-10-05T01:26:03.139Z,9.83
2022-10-05T01:27:03.124Z,9.81
2022-10-05T01:28:03.186Z,9.86
2022-10-05T01:29:03.107Z,9.83
2022-10-05T01:30:03.102Z,9.86
2022-10-05T01:31:03.082Z,9.83
2022-10-05T01:32:03.074Z,9.81
2022-10-05T01:33:03.081Z,9.82
2022-10-05T01:34:05.723Z,9.83
2022-10-05T01:35:03.052Z,9.81
2022-10-05T01:36:03.033Z,9.82
2022-10-05T01:37:03.028Z,9.78
2022-10-05T01:38:03.035Z,9.75
2022-10-05T01:39:03.011Z,9.68
2022-10-05T01:40:03.012Z,9.73
2022-10-05T01:41:02.987Z,9.73
2022-10-05T01:42:02.973Z,9.60
2022-10-05T01:43:02.991Z,9.56
2022-10-05T01:44:02.961Z,9.57
2022-10-05T01:45:02.956Z,9.60
2022-10-05T01:46:03.007Z,9.53
2022-10-05T01:47:02.928Z,9.52
2022-10-05T01:48:02.935Z,9.46
2022-10-05T01:49:02.913Z,9.52
2022-10-05T01:50:02.893Z,9.48
2022-10-05T01:51:02.891Z,9.48
2022-10-05T01:52:02.892Z,9.40
2022-10-05T01:53:02.892Z,9.42
2022-10-05T01:54:02.861Z,9.27
2022-10-05T01:55:02.856Z,9.27
2022-10-05T01:56:02.840Z,9.23
2022-10-05T01:57:02.831Z,9.34
2022-10-05T01:58:02.838Z,9.31
2022-10-05T01:59:02.828Z,9.28
2022-10-05T02:00:02.798Z,9.25
2022-10-05T02:01:02.824Z,9.23
2022-10-05T02:02:02.869Z,9.10
2022-10-05T02:03:02.793Z,9.23
2022-10-05T02:04:02.765Z,9.24
2022-10-05T02:05:03.225Z,9.15
2022-10-05T02:06:02.752Z,9.13
2022-10-05T02:07:02.784Z,9.13
2022-10-05T02:08:02.751Z,9.18
2022-10-05T02:09:02.713Z,9.15
2022-10-05T02:10:02.701Z,9.13
2022-10-05T02:11:02.700Z,9.13
2022-10-05T02:12:02.695Z,9.18
2022-10-05T02:13:02.695Z,9.04
2022-10-05T02:14:02.657Z,9.20
2022-10-05T02:15:02.656Z,9.13
2022-10-05T02:16:02.723Z,9.16
2022-10-05T02:17:02.639Z,9.15
2022-10-05T02:18:02.636Z,9.21
2022-10-05T02:19:02.617Z,9.10
2022-10-05T02:20:02.607Z,9.12
2022-10-05T02:21:02.595Z,9.05
2022-10-05T02:22:02.582Z,9.09
2022-10-05T02:23:02.609Z,9.09
2022-10-05T02:24:02.571Z,9.15
2022-10-05T02:25:02.562Z,9.16
2022-10-05T02:26:02.539Z,9.15
2022-10-05T02:27:02.532Z,9.20
2022-10-05T02:28:02.606Z,9.18
2022-10-05T02:29:02.519Z,9.30
2022-10-05T02:30:02.512Z,9.23
2022-10-05T02:31:02.549Z,9.20
2022-10-05T02:32:02.488Z,9.31
2022-10-05T02:33:02.500Z,9.16
2022-10-05T02:34:02.467Z,9.31
2022-10-05T02:35:02.471Z,9.25
2022-10-05T02:36:02.456Z,9.28
2022-10-05T02:37:02.440Z,9.40
2022-10-05T02:38:02.438Z,9.48
2022-10-05T02:39:02.422Z,9.46
2022-10-05T02:40:02.405Z,9.40
2022-10-05T02:41:02.403Z,9.43
2022-10-05T02:42:02.395Z,9.43
2022-10-05T02:43:02.395Z,9.39
2022-10-05T02:44:02.368Z,9.45
2022-10-05T02:45:02.357Z,9.43
2022-10-05T02:46:02.347Z,9.43
2022-10-05T02:47:02.344Z,9.49
2022-10-05T02:48:02.377Z,9.43
2022-10-05T02:49:02.321Z,9.53
2022-10-05T02:50:02.301Z,9.49
2022-10-05T02:51:02.307Z,9.49
2022-10-05T02:52:02.288Z,9.52
2022-10-05T02:53:02.302Z,9.39
2022-10-05T02:54:02.258Z,9.32
2022-10-05T02:55:02.258Z,9.34
2022-10-05T02:56:02.250Z,9.42
2022-10-05T02:57:02.243Z,9.50
2022-10-05T02:58:02.244Z,9.49
2022-10-05T02:59:02.243Z,9.42
2022-10-05T03:00:02.207Z,9.45
2022-10-05T03:01:02.237Z,9.52
2022-10-05T03:02:02.219Z,9.49
2022-10-05T03:03:02.192Z,9.52
2022-10-05T03:04:02.166Z,9.46
2022-10-05T03:05:02.156Z,9.45
2022-10-05T03:06:02.155Z,9.46
2022-10-05T03:07:02.137Z,9.43
2022-10-05T03:08:02.148Z,9.53
2022-10-05T03:09:02.109Z,9.45
2022-10-05T03:10:02.094Z,9.52
2022-10-05T03:11:02.093Z,9.52
2022-10-05T03:12:02.073Z,9.53
2022-10-05T03:13:03.102Z,9.53
2022-10-05T03:14:02.074Z,9.56
2022-10-05T03:15:02.061Z,9.53
2022-10-05T03:16:02.109Z,9.53
2022-10-05T03:17:02.033Z,9.60
2022-10-05T03:18:02.049Z,9.53
2022-10-05T03:19:02.020Z,9.57
2022-10-05T03:20:02.009Z,9.61
2022-10-05T03:21:02.000Z,9.53
2022-10-05T03:22:01.987Z,9.64
2022-10-05T03:23:01.995Z,9.48
2022-10-05T03:24:01.958Z,9.53
2022-10-05T03:25:01.958Z,9.56
2022-10-05T03:26:01.950Z,9.46
2022-10-05T03:27:01.933Z,9.50
2022-10-05T03:28:01.981Z,9.53
2022-10-05T03:29:01.926Z,9.48
2022-10-05T03:30:01.908Z,9.56
2022-10-05T03:31:01.974Z,9.56
2022-10-05T03:32:01.888Z,9.48
2022-10-05T03:33:01.901Z,9.40
2022-10-05T03:34:01.874Z,9.31
2022-10-05T03:35:01.862Z,9.27
2022-10-05T03:36:01.877Z,9.27
2022-10-05T03:37:01.834Z,9.35
2022-10-05T03:38:01.841Z,9.20
2022-10-05T03:39:01.820Z,9.25
2022-10-05T03:40:01.807Z,9.25
2022-10-05T03:41:01.800Z,9.28
2022-10-05T03:42:01.788Z,9.24
2022-10-05T03:43:01.806Z,9.15
2022-10-05T03:44:01.769Z,9.16
2022-10-05T03:45:01.758Z,9.13
2022-10-05T03:46:01.750Z,9.16
2022-10-05T03:47:01.741Z,9.06
2022-10-05T03:48:01.910Z,9.15
2022-10-05T03:49:01.719Z,9.05
2022-10-05T03:50:01.716Z,9.12
2022-10-05T03:51:01.710Z,9.13
2022-10-05T03:52:01.688Z,9.05
2022-10-05T03:53:01.701Z,9.05
2022-10-05T03:54:01.676Z,8.99
2022-10-05T03:55:01.672Z,8.93
2022-10-05T03:56:03.461Z,8.94
2022-10-05T03:57:02.648Z,8.91
2022-10-05T03:58:01.636Z,8.88
2022-10-05T03:59:01.657Z,8.79
2022-10-05T04:00:01.615Z,8.83
2022-10-05T04:01:01.610Z,8.81
2022-10-05T04:02:01.596Z,8.90
2022-10-05T04:03:01.730Z,8.81
2022-10-05T04:04:01.583Z,8.73
2022-10-05T04:05:01.567Z,8.78
2022-10-05T04:06:01.561Z,8.72
2022-10-05T04:07:01.550Z,8.84
2022-10-05T04:08:01.539Z,8.88
2022-10-05T04:09:01.545Z,8.79
2022-10-05T04:10:01.527Z,8.79
2022-10-05T04:11:01.512Z,8.75
2022-10-05T04:12:01.505Z,8.72
2022-10-05T04:13:01.498Z,8.75
2022-10-05T04:14:01.512Z,8.76
2022-10-05T04:15:01.476Z,8.73
2022-10-05T04:16:01.504Z,8.86
2022-10-05T04:17:01.447Z,8.72
2022-10-05T04:18:01.468Z,8.86
2022-10-05T04:19:01.435Z,8.81
2022-10-05T04:20:01.426Z,8.87
2022-10-05T04:21:01.411Z,8.90
2022-10-05T04:22:01.409Z,8.78
2022-10-05T04:23:01.436Z,8.78
2022-10-05T04:24:01.386Z,8.86
2022-10-05T04:25:01.376Z,8.88
2022-10-05T04:26:01.366Z,8.91
2022-10-05T04:27:01.358Z,8.84
2022-10-05T04:28:01.443Z,8.93
2022-10-05T04:29:01.336Z,8.87
2022-10-05T04:30:01.340Z,8.88
2022-10-05T04:31:01.350Z,8.91
2022-10-05T04:32:01.313Z,8.96
2022-10-05T04:33:01.294Z,8.94
2022-10-05T04:34:01.305Z,8.81
2022-10-05T04:35:01.295Z,8.90
2022-10-05T04:36:01.271Z,8.94
2022-10-05T04:37:01.277Z,8.84
2022-10-05T04:38:01.255Z,8.99
2022-10-05T04:39:01.269Z,8.84
2022-10-05T04:40:01.228Z,9.02
2022-10-05T04:41:01.217Z,8.94
2022-10-05T04:42:01.211Z,8.90
2022-10-05T04:43:01.238Z,8.93
2022-10-05T04:44:01.205Z,8.88
2022-10-05T04:45:01.171Z,8.96
2022-10-05T04:46:01.181Z,8.96
2022-10-05T04:47:01.207Z,9.01
2022-10-05T04:48:01.169Z,9.05
2022-10-05T04:49:01.150Z,8.97
2022-10-05T04:50:01.128Z,9.10
2022-10-05T04:51:01.115Z,9.01
2022-10-05T04:52:02.108Z,9.01
2022-10-05T04:53:01.149Z,8.93
2022-10-05T04:54:01.090Z,8.99
2022-10-05T04:55:01.080Z,8.88
2022-10-05T04:56:01.075Z,8.88
2022-10-05T04:57:01.066Z,8.90
2022-10-05T04:58:01.082Z,8.86
2022-10-05T04:59:01.053Z,8.87
2022-10-05T05:00:01.044Z,8.91
2022-10-05T05:01:01.055Z,8.87
2022-10-05T05:02:01.028Z,8.86
2022-10-05T05:03:01.039Z,8.87
2022-10-05T05:04:01.065Z,8.81
2022-10-05T05:05:00.975Z,8.73
2022-10-05T05:06:17.318Z,8.83
2022-10-05T05:07:02.979Z,8.79
2022-10-05T05:08:00.980Z,8.81
2022-10-05T05:09:00.941Z,8.81
2022-10-05T05:10:00.937Z,8.87
2022-10-05T05:11:00.934Z,8.81
2022-10-05T05:12:00.928Z,8.76
2022-10-05T05:13:00.924Z,8.73
2022-10-05T05:14:00.909Z,8.76
2022-10-05T05:15:00.894Z,8.79
2022-10-05T05:16:00.979Z,8.76
2022-10-05T05:17:00.865Z,8.73
2022-10-05T05:18:00.885Z,8.79
2022-10-05T05:19:00.857Z,8.71
2022-10-05T05:20:00.850Z,8.73
2022-10-05T05:21:00.817Z,8.76
2022-10-05T05:22:00.814Z,8.87
2022-10-05T05:23:00.828Z,8.83
2022-10-05T05:24:00.797Z,8.87
2022-10-05T05:25:00.792Z,8.83
2022-10-05T05:26:00.785Z,8.81
2022-10-05T05:27:00.771Z,8.79
2022-10-05T05:28:00.837Z,8.84
2022-10-05T05:29:00.748Z,8.65
2022-10-05T05:30:00.739Z,8.75
2022-10-05T05:31:00.807Z,8.72
2022-10-05T05:32:00.723Z,8.81
2022-10-05T05:33:00.720Z,8.79
2022-10-05T05:34:00.700Z,8.81
2022-10-05T05:35:00.692Z,8.78
2022-10-05T05:36:00.678Z,8.69
2022-10-05T05:37:00.662Z,8.69
2022-10-05T05:38:00.677Z,8.83
2022-10-05T05:39:00.657Z,8.72
2022-10-05T05:40:00.642Z,8.81
2022-10-05T05:41:00.632Z,8.79
2022-10-05T05:42:00.623Z,8.73
2022-10-05T05:43:00.625Z,8.72
2022-10-05T05:44:00.605Z,8.79
2022-10-05T05:45:00.598Z,8.81
2022-10-05T05:46:00.588Z,8.78
2022-10-05T05:47:05.028Z,8.73
2022-10-05T05:48:01.585Z,8.87
2022-10-05T05:49:00.549Z,8.84
2022-10-05T05:50:06.337Z,8.99
2022-10-05T05:51:02.530Z,8.94
2022-10-05T05:52:00.519Z,8.91
2022-10-05T05:53:00.533Z,8.94
2022-10-05T05:54:00.507Z,8.84
2022-10-05T05:55:00.492Z,8.97
2022-10-05T05:56:00.482Z,9.02
2022-10-05T05:57:00.476Z,9.05
2022-10-05T05:58:00.485Z,9.01
2022-10-05T05:59:00.456Z,9.05
2022-10-05T06:00:01.452Z,9.24
2022-10-05T06:01:00.446Z,9.16
2022-10-05T06:02:00.498Z,9.20
2022-10-05T06:03:00.642Z,9.28
2022-10-05T06:04:00.411Z,9.30
2022-10-05T06:05:00.399Z,9.32
2022-10-05T06:06:00.469Z,9.27
2022-10-05T06:07:00.386Z,9.35
2022-10-05T06:08:00.385Z,9.39
2022-10-05T06:09:00.365Z,9.50
2022-10-05T06:10:00.351Z,9.50
2022-10-05T06:11:00.342Z,9.49
2022-10-05T06:12:00.326Z,9.60
2022-10-05T06:13:01.826Z,9.57
2022-10-05T06:14:01.310Z,9.57
2022-10-05T06:15:00.319Z,9.56
2022-10-05T06:16:00.317Z,9.73
2022-10-05T06:17:00.278Z,9.79
2022-10-05T06:18:00.293Z,9.73
2022-10-05T06:19:00.263Z,9.66
2022-10-05T06:20:05.019Z,9.82
2022-10-05T06:21:01.247Z,9.73
2022-10-05T06:22:00.234Z,9.97
2022-10-05T06:23:00.227Z,9.91
2022-10-05T06:24:00.210Z,10.01
2022-10-05T06:25:00.205Z,10.00
2022-10-05T06:26:00.196Z,9.99
2022-10-05T06:27:00.191Z,10.17
2022-10-05T06:28:00.274Z,10.14
2022-10-05T06:29:00.167Z,10.17
2022-10-05T06:30:00.150Z,10.14
2022-10-05T06:31:00.161Z,10.21
2022-10-05T06:32:00.204Z,10.26
2022-10-05T06:33:00.144Z,10.34
2022-10-05T06:34:00.117Z,10.26
2022-10-05T06:35:00.156Z,10.28
2022-10-05T06:36:00.084Z,10.33
2022-10-05T06:37:00.093Z,10.39
2022-10-05T06:38:00.116Z,10.42
2022-10-05T06:39:00.070Z,10.42
2022-10-05T06:40:01.260Z,10.53
2022-10-05T06:41:00.051Z,10.47
2022-10-05T06:42:00.032Z,10.52
2022-10-05T06:43:00.067Z,10.59
2022-10-05T06:44:00.006Z,10.62
2022-10-05T06:45:00.010Z,10.58
2022-10-05T06:46:00.082Z,10.58
2022-10-05T06:46:59.984Z,10.66
2022-10-05T06:48:04.380Z,10.73
2022-10-05T06:49:01.970Z,10.77
2022-10-05T06:49:59.950Z,10.78
2022-10-05T06:50:59.945Z,10.83
2022-10-05T06:51:59.937Z,10.80
2022-10-05T06:52:59.940Z,10.78
2022-10-05T06:53:59.918Z,10.88
2022-10-05T06:54:59.901Z,10.78
2022-10-05T06:55:59.895Z,10.91
2022-10-05T06:56:59.886Z,10.94
2022-10-05T06:57:59.893Z,10.89
2022-10-05T06:59:12.469Z,10.96
2022-10-05T06:59:59.853Z,11.01
2022-10-05T07:00:59.879Z,11.07
2022-10-05T07:01:59.853Z,11.11
2022-10-05T07:02:59.844Z,11.14
2022-10-05T07:03:59.811Z,11.17
2022-10-05T07:04:59.802Z,11.13
2022-10-05T07:05:59.793Z,11.20
2022-10-05T07:06:59.788Z,11.16
2022-10-05T07:07:59.798Z,11.35
2022-10-05T07:08:59.769Z,11.25
2022-10-05T07:09:59.754Z,11.31
2022-10-05T07:10:59.752Z,11.32
2022-10-05T07:12:03.590Z,11.44
2022-10-05T07:13:01.887Z,11.38
2022-10-05T07:13:59.718Z,11.46
2022-10-05T07:14:59.717Z,11.46
2022-10-05T07:15:59.747Z,11.50
2022-10-05T07:16:59.702Z,11.53
2022-10-05T07:17:59.696Z,11.56
2022-10-05T07:18:59.684Z,11.61
2022-10-05T07:19:59.662Z,11.62
2022-10-05T07:20:59.670Z,11.65
2022-10-05T07:21:59.685Z,11.62
2022-10-05T07:22:59.714Z,11.71
2022-10-05T07:23:59.618Z,11.78
2022-10-05T07:24:59.622Z,11.86
2022-10-05T07:25:59.633Z,11.80
2022-10-05T07:26:59.605Z,11.89
2022-10-05T07:27:59.636Z,11.83
2022-10-05T07:28:59.581Z,11.86
2022-10-05T07:29:59.547Z,11.86
2022-10-05T07:30:59.627Z,11.87
2022-10-05T07:31:59.533Z,12.01
2022-10-05T07:33:00.543Z,11.96
2022-10-05T07:33:59.523Z,11.93
2022-10-05T07:34:59.520Z,11.94
2022-10-05T07:35:59.507Z,11.97
2022-10-05T07:36:59.659Z,11.90
2022-10-05T07:37:59.478Z,12.01
2022-10-05T07:38:59.492Z,12.04
2022-10-05T07:40:00.907Z,12.06
2022-10-05T07:41:00.500Z,12.13
2022-10-05T07:41:59.434Z,12.08
2022-10-05T07:42:59.428Z,12.11
2022-10-05T07:44:03.380Z,12.19
2022-10-05T07:45:00.412Z,12.20
2022-10-05T07:45:59.449Z,12.23
2022-10-05T07:46:59.391Z,12.16
2022-10-05T07:47:59.385Z,12.16
2022-10-05T07:48:59.380Z,12.13
2022-10-05T07:49:59.338Z,12.16
2022-10-05T07:50:59.344Z,12.21
2022-10-05T07:51:59.360Z,12.29
2022-10-05T07:52:59.321Z,12.24
2022-10-05T07:53:59.321Z,12.30
2022-10-05T07:54:59.303Z,12.21
2022-10-05T07:55:59.705Z,12.23
2022-10-05T07:56:59.285Z,12.24
2022-10-05T07:57:59.285Z,12.27
2022-10-05T07:58:59.259Z,12.27
2022-10-05T07:59:59.257Z,12.29
2022-10-05T08:00:59.240Z,12.24
2022-10-05T08:01:59.310Z,12.30
2022-10-05T08:02:59.366Z,12.38
2022-10-05T08:03:59.222Z,12.33
2022-10-05T08:04:59.207Z,12.38
2022-10-05T08:05:59.192Z,12.41
2022-10-05T08:06:59.186Z,12.33
2022-10-05T08:07:59.198Z,12.45
2022-10-05T08:08:59.170Z,12.41
2022-10-05T08:09:59.144Z,12.42
2022-10-05T08:10:59.157Z,12.42
2022-10-05T08:11:59.299Z,12.46
2022-10-05T08:12:59.139Z,12.42
2022-10-05T08:13:59.104Z,12.52
2022-10-05T08:14:59.107Z,12.49
2022-10-05T08:15:59.353Z,12.63
2022-10-05T08:16:59.107Z,12.60
2022-10-05T08:17:59.165Z,12.64
2022-10-05T08:18:59.066Z,12.67
2022-10-05T08:19:59.052Z,12.77
2022-10-05T08:20:59.047Z,12.70
2022-10-05T08:21:59.041Z,12.70
2022-10-05T08:22:59.046Z,12.77
2022-10-05T08:23:59.021Z,12.88
2022-10-05T08:24:59.009Z,12.92
2022-10-05T08:25:59.006Z,12.92
2022-10-05T08:26:58.993Z,12.95
2022-10-05T08:27:59.033Z,13.03
2022-10-05T08:28:58.978Z,13.12
2022-10-05T08:29:58.964Z,13.21
2022-10-05T08:30:59.018Z,13.09
2022-10-05T08:31:58.942Z,13.29
2022-10-05T08:32:58.949Z,13.22
2022-10-05T08:33:58.927Z,13.30
2022-10-05T08:34:58.950Z,13.33
2022-10-05T08:35:58.901Z,13.33
2022-10-05T08:36:58.892Z,13.38
2022-10-05T08:37:58.870Z,13.51
2022-10-05T08:38:58.892Z,13.52
2022-10-05T08:39:58.899Z,13.65
2022-10-05T08:40:58.848Z,13.69
2022-10-05T08:41:58.822Z,13.63
2022-10-05T08:42:58.907Z,13.59
2022-10-05T08:43:58.843Z,13.56
2022-10-05T08:44:58.809Z,13.67
2022-10-05T08:45:58.893Z,13.65
2022-10-05T08:46:58.792Z,13.76
2022-10-05T08:47:58.781Z,13.71
2022-10-05T08:48:58.790Z,13.81
2022-10-05T08:49:58.752Z,13.91
2022-10-05T08:50:58.754Z,13.87
2022-10-05T08:51:58.748Z,14.01
2022-10-05T08:52:58.729Z,13.95
2022-10-05T08:53:58.745Z,14.21
2022-10-05T08:54:58.708Z,14.06
2022-10-05T08:55:58.746Z,14.27
2022-10-05T08:56:58.708Z,14.37
2022-10-05T08:57:58.711Z,14.37
2022-10-05T08:58:58.689Z,14.42
2022-10-05T08:59:58.672Z,14.44
2022-10-05T09:00:58.739Z,14.39
2022-10-05T09:01:58.732Z,14.49
2022-10-05T09:02:58.715Z,14.42
2022-10-05T09:03:58.651Z,14.47
2022-10-05T09:04:58.624Z,14.47
2022-10-05T09:05:58.603Z,14.38
2022-10-05T09:06:58.614Z,14.29
2022-10-05T09:07:58.586Z,14.39
2022-10-05T09:08:58.594Z,14.32
2022-10-05T09:10:01.750Z,14.38
2022-10-05T09:10:58.557Z,14.53
2022-10-05T09:11:58.546Z,14.50
2022-10-05T09:12:58.544Z,14.47
2022-10-05T09:13:58.540Z,14.52
2022-10-05T09:15:23.861Z,14.61
2022-10-05T09:16:00.610Z,14.57
2022-10-05T09:16:58.497Z,14.65
2022-10-05T09:17:58.483Z,14.69
2022-10-05T09:18:58.505Z,14.65
2022-10-05T09:19:58.470Z,14.60
2022-10-05T09:20:58.457Z,14.57
2022-10-05T09:21:58.503Z,14.65
2022-10-05T09:22:58.436Z,14.75
2022-10-05T09:23:58.438Z,14.87
2022-10-05T09:24:58.411Z,14.93
2022-10-05T09:25:58.408Z,14.90
2022-10-05T09:26:58.413Z,14.99
2022-10-05T09:27:58.436Z,15.09
2022-10-05T09:28:58.393Z,15.08
2022-10-05T09:29:58.361Z,15.05
2022-10-05T09:30:58.396Z,14.98
2022-10-05T09:31:58.342Z,15.01
2022-10-05T09:32:58.332Z,14.87
2022-10-05T09:33:58.337Z,15.02
2022-10-05T09:34:58.318Z,14.87
2022-10-05T09:35:58.304Z,14.87
2022-10-05T09:36:58.303Z,14.84
2022-10-05T09:37:58.309Z,14.88
2022-10-05T09:38:58.296Z,14.72
2022-10-05T09:40:01.314Z,14.75
2022-10-05T09:40:59.265Z,14.71
2022-10-05T09:41:58.252Z,14.68
2022-10-05T09:42:58.234Z,14.71
2022-10-05T09:43:58.251Z,14.81
2022-10-05T09:44:58.213Z,14.87
2022-10-05T09:45:58.231Z,14.84
2022-10-05T09:46:58.215Z,14.94
2022-10-05T09:47:58.218Z,14.98
2022-10-05T09:48:58.184Z,15.02
2022-10-05T09:49:58.174Z,15.01
2022-10-05T09:50:58.171Z,15.24
2022-10-05T09:51:58.160Z,15.19
2022-10-05T09:52:58.166Z,15.23
2022-10-05T09:53:58.135Z,15.31
2022-10-05T09:54:58.130Z,15.24
2022-10-05T09:55:58.118Z,15.35
2022-10-05T09:56:58.117Z,15.43
2022-10-05T09:57:58.118Z,15.45
2022-10-05T09:58:58.089Z,15.42
2022-10-05T09:59:58.120Z,15.43
2022-10-05T10:01:08.996Z,15.43
2022-10-05T10:01:59.099Z,15.46
2022-10-05T10:02:58.265Z,15.54
2022-10-05T10:03:58.037Z,15.59
2022-10-05T10:04:58.022Z,15.66
2022-10-05T10:05:58.059Z,15.79
2022-10-05T10:06:58.006Z,15.78
2022-10-05T10:07:58.027Z,15.67
2022-10-05T10:08:58.004Z,15.52
2022-10-05T10:09:57.987Z,15.64
2022-10-05T10:10:57.970Z,15.59
2022-10-05T10:11:57.954Z,15.63
2022-10-05T10:12:57.967Z,15.63
2022-10-05T10:13:57.946Z,15.60
2022-10-05T10:15:02.510Z,15.66
2022-10-05T10:15:59.019Z,15.60
2022-10-05T10:16:57.917Z,15.66
2022-10-05T10:17:57.916Z,15.81
2022-10-05T10:18:57.892Z,15.76
2022-10-05T10:19:57.887Z,15.81
2022-10-05T10:20:57.868Z,15.96
2022-10-05T10:21:57.868Z,15.86
2022-10-05T10:22:57.866Z,15.89
2022-10-05T10:23:57.836Z,16.03
2022-10-05T10:24:57.834Z,16.00
2022-10-05T10:25:57.815Z,15.99
2022-10-05T10:26:57.803Z,16.00
2022-10-05T10:27:57.901Z,16.01
2022-10-05T10:28:57.815Z,16.07
2022-10-05T10:29:57.786Z,16.09
2022-10-05T10:30:57.906Z,16.11
2022-10-05T10:31:57.758Z,16.06
2022-10-05T10:32:57.773Z,16.07
2022-10-05T10:33:57.777Z,16.03
2022-10-05T10:34:57.729Z,16.06
2022-10-05T10:35:59.560Z,16.14
2022-10-05T10:36:58.719Z,16.25
2022-10-05T10:37:57.741Z,16.31
2022-10-05T10:38:57.681Z,16.20
2022-10-05T10:39:57.671Z,16.27
2022-10-05T10:40:57.667Z,16.40
2022-10-05T10:41:57.666Z,16.33
2022-10-05T10:42:57.658Z,16.15
2022-10-05T10:43:57.629Z,16.18
2022-10-05T10:44:57.625Z,16.18
2022-10-05T10:45:57.660Z,16.30
2022-10-05T10:46:57.663Z,16.38
2022-10-05T10:47:57.595Z,16.62
2022-10-05T10:48:57.587Z,16.77
2022-10-05T10:49:57.575Z,16.60
2022-10-05T10:50:57.565Z,16.59
2022-10-05T10:51:57.553Z,16.58
2022-10-05T10:52:57.570Z,16.60
2022-10-05T10:53:57.643Z,16.56
2022-10-05T10:54:57.524Z,16.60
2022-10-05T10:55:57.510Z,16.67
2022-10-05T10:56:57.494Z,16.77
2022-10-05T10:57:57.529Z,16.73
2022-10-05T10:58:57.483Z,16.68
2022-10-05T10:59:57.475Z,16.80
2022-10-05T11:00:57.468Z,16.67
2022-10-05T11:01:57.579Z,16.62
2022-10-05T11:02:57.508Z,16.42
2022-10-05T11:03:57.473Z,16.49
2022-10-05T11:04:57.422Z,16.59
2022-10-05T11:05:57.417Z,16.55
2022-10-05T11:06:57.409Z,16.56
2022-10-05T11:07:57.383Z,16.67
2022-10-05T11:08:57.409Z,16.77
2022-10-05T11:09:57.374Z,16.88
2022-10-05T11:10:57.377Z,16.86
2022-10-05T11:11:57.339Z,16.83
2022-10-05T11:12:57.348Z,16.86
2022-10-05T11:13:57.356Z,16.75
2022-10-05T11:14:57.339Z,16.83
2022-10-05T11:15:57.362Z,16.77
2022-10-05T11:16:57.304Z,16.71
2022-10-05T11:17:57.298Z,16.58
2022-10-05T11:18:57.310Z,16.70
2022-10-05T11:20:05.198Z,16.68
2022-10-05T11:20:59.272Z,16.59
2022-10-05T11:21:57.254Z,16.68
2022-10-05T11:22:57.254Z,16.71
2022-10-05T11:23:57.238Z,16.63
2022-10-05T11:24:57.219Z,16.65
2022-10-05T11:25:57.216Z,16.68
2022-10-05T11:26:57.207Z,16.71
2022-10-05T11:27:57.210Z,16.80
2022-10-05T11:28:57.202Z,16.74
2022-10-05T11:29:57.175Z,16.63
2022-10-05T11:30:57.197Z,16.81
2022-10-05T11:31:57.247Z,16.77
2022-10-05T11:32:57.149Z,16.73
2022-10-05T11:33:57.143Z,16.70
2022-10-05T11:34:57.124Z,16.68
2022-10-05T11:35:57.102Z,16.75
2022-10-05T11:36:57.109Z,16.65
2022-10-05T11:37:57.098Z,16.59
2022-10-05T11:38:57.107Z,16.59
2022-10-05T11:39:57.075Z,16.74
2022-10-05T11:40:57.072Z,16.93
2022-10-05T11:41:57.065Z,16.89
2022-10-05T11:42:57.046Z,16.98
2022-10-05T11:43:57.056Z,17.07
2022-10-05T11:44:57.033Z,17.03
2022-10-05T11:45:57.038Z,17.11
2022-10-05T11:46:57.010Z,17.11
2022-10-05T11:47:57.002Z,17.26
2022-10-05T11:48:57.007Z,17.18
2022-10-05T11:49:56.985Z,17.23
2022-10-05T11:50:56.972Z,17.29
2022-10-05T11:51:56.951Z,17.28
2022-10-05T11:52:56.950Z,17.17
2022-10-05T11:53:56.957Z,17.30
2022-10-05T11:55:12.505Z,17.43
2022-10-05T11:55:58.911Z,17.33
2022-10-05T11:56:57.148Z,17.47
2022-10-05T11:57:56.902Z,17.36
2022-10-05T11:58:56.910Z,17.51
2022-10-05T11:59:56.872Z,17.51
2022-10-05T12:00:56.870Z,17.54
2022-10-05T12:01:56.859Z,17.55
2022-10-05T12:02:56.906Z,17.43
2022-10-05T12:03:56.914Z,17.28
2022-10-05T12:04:56.831Z,17.08
2022-10-05T12:05:56.819Z,17.15
2022-10-05T12:06:56.811Z,16.98
2022-10-05T12:07:56.798Z,16.85
2022-10-05T12:08:56.817Z,16.99
2022-10-05T12:09:56.784Z,17.04
2022-10-05T12:10:56.765Z,17.20
2022-10-05T12:11:58.025Z,17.20
2022-10-05T12:12:56.995Z,17.26
2022-10-05T12:13:56.756Z,17.15
2022-10-05T12:14:56.734Z,17.17
2022-10-05T12:15:56.733Z,17.15
2022-10-05T12:16:56.707Z,17.13
2022-10-05T12:17:56.700Z,17.14
2022-10-05T12:18:56.705Z,17.20
2022-10-05T12:19:56.671Z,17.25
2022-10-05T12:20:56.692Z,17.33
2022-10-05T12:21:56.664Z,17.55
2022-10-05T12:22:57.020Z,17.63
2022-10-05T12:23:56.645Z,17.79
2022-10-05T12:24:56.624Z,17.97
2022-10-05T12:25:56.618Z,17.91
2022-10-05T12:26:56.619Z,17.87
2022-10-05T12:27:56.628Z,17.84
2022-10-05T12:28:56.612Z,17.78
2022-10-05T12:29:56.596Z,17.73
2022-10-05T12:30:56.576Z,17.54
2022-10-05T12:31:56.557Z,17.44
2022-10-05T12:33:01.016Z,17.62
2022-10-05T12:33:58.576Z,17.63
2022-10-05T12:35:01.506Z,17.67
2022-10-05T12:35:58.527Z,17.66
2022-10-05T12:37:03.885Z,17.64
2022-10-05T12:37:58.505Z,17.73
2022-10-05T12:38:56.511Z,17.62
2022-10-05T12:39:56.489Z,17.73
2022-10-05T12:40:56.469Z,17.73
2022-10-05T12:41:57.477Z,17.84
2022-10-05T12:42:56.454Z,17.87
2022-10-05T12:43:56.461Z,17.91
2022-10-05T12:44:56.433Z,17.94
2022-10-05T12:45:56.549Z,17.97
2022-10-05T12:46:56.406Z,18.02
2022-10-05T12:47:56.439Z,18.10
2022-10-05T12:48:56.415Z,18.04
2022-10-05T12:49:56.383Z,18.02
2022-10-05T12:50:56.376Z,18.29
2022-10-05T12:51:56.361Z,18.39
2022-10-05T12:52:56.352Z,18.47
2022-10-05T12:53:56.357Z,18.33
2022-10-05T12:54:56.334Z,18.42
2022-10-05T12:55:56.320Z,18.44
2022-10-05T12:56:56.318Z,18.40
2022-10-05T12:57:56.304Z,18.36
2022-10-05T12:58:56.316Z,18.36
2022-10-05T12:59:56.281Z,18.18
2022-10-05T13:00:56.300Z,18.10
2022-10-05T13:01:56.271Z,18.07
2022-10-05T13:02:56.246Z,17.99